Time;durP1;ratioP1;P1;durP2;ratioP2;P2;SDS_P1;SDS_P2;PMS_P1;PMS_P2;Temp;Humidity;BMP_temperature;BMP_pressure;BME280_temperature;BME280_humidity;BME280_pressure;Samples;Min_cycle;Max_cycle;Signal;HPM_P1;HPM_P2
2023/07/05 00:00:18;;;;;;;35.13;31.98;;;15.60;99.90;;;;;;5010117;28;20538;-57
2023/07/05 00:02:45;;;;;;;35.15;31.65;;;15.70;56.20;;;;;;5010103;28;20042;-56
2023/07/05 00:05:11;;;;;;;34.28;31.15;;;15.20;1.00;;;;;;5010020;28;20082;-58
2023/07/05 00:07:37;;;;;;;34.15;31.02;;;15.70;99.90;;;;;;5009939;28;20551;-57
2023/07/05 00:10:03;;;;;;;32.28;29.50;;;15.10;1.00;;;;;;5015433;28;20128;-57
2023/07/05 00:12:29;;;;;;;30.55;27.58;;;15.20;99.90;;;;;;5011793;28;20049;-57
2023/07/05 00:14:54;;;;;;;31.95;26.55;;;15.40;1.00;;;;;;5009985;28;20611;-57
2023/07/05 00:17:20;;;;;;;29.13;26.52;;;15.00;99.90;;;;;;5010689;28;20038;-57
2023/07/05 00:19:53;;;;;;;28.30;25.35;;;15.20;1.00;;;;;;5013616;28;20057;-58
2023/07/05 00:22:19;;;;;;;25.15;22.45;;;15.50;24.10;;;;;;5013737;28;20030;-58
2023/07/05 00:24:45;;;;;;;23.92;21.58;;;14.80;1.00;;;;;;5013725;28;20080;-58
2023/07/05 00:27:12;;;;;;;25.77;23.17;;;15.50;99.90;;;;;;5013586;28;20420;-57
2023/07/05 00:29:37;;;;;;;26.33;23.08;;;15.30;62.30;;;;;;5013625;28;20160;-57
2023/07/05 00:32:03;;;;;;;24.40;21.95;;;15.30;99.90;;;;;;5013504;28;20606;-57
2023/07/05 00:34:29;;;;;;;25.63;22.50;;;15.50;99.90;;;;;;5012111;28;20046;-57
2023/07/05 00:36:54;;;;;;;41.83;23.23;;;15.00;99.90;;;;;;5013300;28;20496;-58
2023/07/05 00:39:20;;;;;;;28.10;23.27;;;15.40;99.90;;;;;;5013507;28;20515;-58
2023/07/05 00:41:45;;;;;;;27.80;23.38;;;14.70;99.90;;;;;;5013210;28;20042;-58
2023/07/05 00:44:13;;;;;;;26.60;23.70;;;14.70;99.90;;;;;;5013199;28;20069;-57
2023/07/05 00:46:45;;;;;;;24.77;21.92;;;15.00;99.90;;;;;;5013137;28;20069;-58
2023/07/05 00:49:15;;;;;;;25.27;22.77;;;15.70;99.90;;;;;;5013176;28;20045;-58
2023/07/05 00:51:46;;;;;;;27.48;22.60;;;15.80;99.90;;;;;;5013127;28;20042;-58
2023/07/05 00:54:14;;;;;;;27.48;24.58;;;15.80;99.90;;;;;;5013111;28;20447;-58
2023/07/05 00:56:46;;;;;;;26.58;22.10;;;16.10;99.90;;;;;;5013033;28;20528;-58
2023/07/05 00:59:13;;;;;;;25.65;22.92;;;15.90;99.90;;;;;;5013103;28;20512;-58
2023/07/05 01:01:40;;;;;;;25.33;22.88;;;15.30;99.90;;;;;;5012849;28;20112;-58
2023/07/05 01:04:06;;;;;;;25.20;22.60;;;15.60;99.90;;;;;;5013099;28;20053;-58
2023/07/05 01:06:32;;;;;;;25.15;22.45;;;15.20;99.90;;;;;;5012933;28;20041;-58
2023/07/05 01:08:58;;;;;;;26.33;23.80;;;15.90;99.90;;;;;;5012775;28;20044;-58
2023/07/05 01:11:39;;;;;;;26.48;23.33;;;15.00;99.90;;;;;;5020021;28;20050;-58
2023/07/05 01:14:19;;;;;;;27.88;23.73;;;14.90;99.90;;;;;;5012661;28;20416;-59
2023/07/05 01:17:13;;;;;;;27.20;24.30;;;16.00;99.90;;;;;;5012611;28;20064;-58
2023/07/05 01:20:09;;;;;;;29.23;26.30;;;15.00;99.90;;;;;;5012826;28;20053;-58
2023/07/05 01:22:59;;;;;;;31.60;24.33;;;14.90;99.90;;;;;;5012608;28;20073;-59
2023/07/05 01:26:05;;;;;;;30.00;25.15;;;15.90;99.90;;;;;;5012523;28;20085;-59
2023/07/05 01:28:37;;;;;;;30.15;25.88;;;14.70;99.90;;;;;;5011977;28;20073;-58
2023/07/05 01:31:42;;;;;;;30.67;27.58;;;14.70;99.90;;;;;;5012607;28;20128;-58
2023/07/05 01:34:42;;;;;;;29.83;25.75;;;15.90;99.90;;;;;;5012742;28;20365;-59
2023/07/05 01:37:19;;;;;;;31.77;27.33;;;14.90;99.90;;;;;;5014814;28;20089;-58
2023/07/05 01:39:45;;;;;;;31.55;28.15;;;16.00;99.90;;;;;;5012445;28;20037;-58
2023/07/05 01:42:11;;;;;;;29.40;26.42;;;14.70;99.90;;;;;;5044109;28;20037;-58
2023/07/05 01:44:37;;;;;;;30.80;27.45;;;16.00;99.90;;;;;;5012088;28;20081;-58
2023/07/05 01:47:17;;;;;;;30.85;27.73;;;14.60;99.90;;;;;;5012089;28;20496;-59
2023/07/05 01:50:03;;;;;;;35.10;31.55;;;14.60;99.90;;;;;;5011992;28;20076;-59
2023/07/05 01:52:43;;;;;;;32.60;28.92;;;16.00;99.90;;;;;;5012077;28;20046;-59
2023/07/05 01:55:18;;;;;;;32.80;29.33;;;15.30;99.90;;;;;;5012202;28;20057;-58
2023/07/05 01:57:54;;;;;;;33.53;30.10;;;14.90;99.90;;;;;;5011868;28;20042;-58
2023/07/05 02:00:21;;;;;;;32.72;29.88;;;14.60;99.90;;;;;;5011905;28;20042;-59
2023/07/05 02:03:01;;;;;;;34.42;31.15;;;15.40;99.90;;;;;;5011983;28;20042;-59
2023/07/05 02:05:29;;;;;;;32.92;29.60;;;14.90;99.90;;;;;;5027310;28;20041;-59
2023/07/05 02:07:56;;;;;;;34.95;31.63;;;16.40;99.90;;;;;;5031463;28;20073;-59
2023/07/05 02:10:21;;;;;;;34.25;31.05;;;14.60;99.90;;;;;;5030643;28;20057;-59
2023/07/05 02:12:47;;;;;;;34.80;31.45;;;16.30;99.90;;;;;;5010482;28;20050;-59
2023/07/05 02:15:13;;;;;;;35.20;32.08;;;14.90;99.90;;;;;;5011768;28;20542;-59
2023/07/05 02:17:39;;;;;;;36.15;32.42;;;14.70;99.90;;;;;;5011439;28;20045;-59
2023/07/05 02:20:06;;;;;;;35.65;31.75;;;14.60;99.90;;;;;;5011588;28;20037;-59
2023/07/05 02:22:31;;;;;;;36.28;32.97;;;14.60;99.90;;;;;;5011432;28;20352;-59
2023/07/05 02:24:57;;;;;;;35.33;31.73;;;16.10;99.90;;;;;;5011441;28;20045;-59
2023/07/05 02:27:23;;;;;;;37.35;33.90;;;14.70;99.90;;;;;;5011510;28;20495;-59
2023/07/05 02:29:50;;;;;;;35.17;31.67;;;15.50;99.90;;;;;;5011479;28;20037;-58
2023/07/05 02:32:15;;;;;;;36.60;32.65;;;15.00;99.90;;;;;;5011386;28;20041;-59
2023/07/05 02:34:42;;;;;;;34.40;30.95;;;14.60;99.90;;;;;;5011339;28;20069;-59
2023/07/05 02:37:09;;;;;;;36.20;32.90;;;15.80;99.90;;;;;;5011000;28;20052;-60
2023/07/05 02:39:35;;;;;;;35.97;32.65;;;14.80;99.90;;;;;;5010517;28;20056;-59
2023/07/05 02:42:01;;;;;;;36.13;32.35;;;14.60;99.90;;;;;;5010700;28;20038;-59
2023/07/05 02:44:27;;;;;;;35.50;31.77;;;16.30;99.90;;;;;;5010958;28;20061;-59
2023/07/05 02:46:52;;;;;;;36.17;32.83;;;15.60;99.90;;;;;;5010973;28;20054;-59
2023/07/05 02:49:18;;;;;;;35.03;31.70;;;16.20;99.90;;;;;;5010882;28;20074;-59
2023/07/05 02:51:43;;;;;;;38.10;34.30;;;14.60;99.90;;;;;;5010927;28;20088;-59
2023/07/05 02:54:09;;;;;;;37.05;33.22;;;16.30;99.90;;;;;;5010974;28;20368;-59
2023/07/05 02:56:34;;;;;;;37.38;33.58;;;16.40;99.90;;;;;;5010846;28;20080;-59
2023/07/05 02:59:00;;;;;;;39.67;36.10;;;16.40;99.90;;;;;;5011413;28;20037;-60
2023/07/05 03:01:26;;;;;;;37.30;33.75;;;16.20;99.90;;;;;;5010925;28;20060;-61
2023/07/05 03:03:51;;;;;;;38.80;35.20;;;14.50;99.90;;;;;;5010956;28;20033;-60
2023/07/05 03:06:17;;;;;;;41.65;37.53;;;14.80;99.90;;;;;;5025842;28;20091;-61
2023/07/05 03:08:42;;;;;;;43.65;39.13;;;15.60;99.90;;;;;;5009226;28;20478;-60
2023/07/05 03:11:08;;;;;;;41.40;37.33;;;14.70;99.90;;;;;;5017857;28;20523;-60
2023/07/05 03:13:34;;;;;;;41.72;37.78;;;16.40;99.90;;;;;;5010910;28;20416;-61
2023/07/05 03:16:00;;;;;;;41.53;37.60;;;16.10;99.90;;;;;;5009553;28;20038;-61
2023/07/05 03:18:26;;;;;;;42.03;38.10;;;14.90;99.90;;;;;;5010477;28;20057;-60
2023/07/05 03:20:53;;;;;;;43.47;39.25;;;14.50;99.90;;;;;;5010520;28;20500;-61
2023/07/05 03:23:19;;;;;;;44.60;40.40;;;17.00;99.90;;;;;;5010551;28;20484;-61
2023/07/05 03:26:00;;;;;;;42.20;38.22;;;16.50;99.90;;;;;;5010242;28;20076;-61
2023/07/05 03:28:29;;;;;;;42.38;38.42;;;14.70;99.90;;;;;;5008928;28;20515;-60
2023/07/05 03:31:16;;;;;;;41.90;37.90;;;15.70;99.90;;;;;;5010505;28;20038;-61
2023/07/05 03:33:42;;;;;;;42.67;38.35;;;14.50;99.90;;;;;;5010288;28;20133;-60
2023/07/05 03:36:12;;;;;;;41.90;37.80;;;16.60;99.90;;;;;;5010126;28;20534;-60
2023/07/05 03:38:37;;;;;;;44.75;40.78;;;16.60;99.90;;;;;;5010210;28;20046;-61
2023/07/05 03:41:13;;;;;;;42.40;38.67;;;16.70;99.90;;;;;;5010501;28;20369;-60
2023/07/05 03:43:40;;;;;;;46.00;42.08;;;15.40;99.90;;;;;;5010367;28;20061;-60
2023/07/05 03:46:07;;;;;;;42.35;38.58;;;16.90;99.90;;;;;;5009810;28;20093;-60
2023/07/05 03:48:42;;;;;;;45.45;41.22;;;17.10;99.90;;;;;;5010035;28;20077;-60
2023/07/05 03:51:10;;;;;;;42.58;38.53;;;14.70;99.90;;;;;;5010621;28;20068;-60
2023/07/05 03:53:36;;;;;;;44.20;39.88;;;15.70;99.90;;;;;;5013787;28;20053;-60
2023/07/05 03:56:04;;;;;;;42.38;38.40;;;17.50;99.90;;;;;;5014240;28;20042;-60
2023/07/05 03:58:31;;;;;;;41.05;37.13;;;16.80;99.90;;;;;;5013729;28;20050;-60
2023/07/05 04:01:09;;;;;;;43.42;39.22;;;17.20;99.90;;;;;;5014228;28;20420;-60
2023/07/05 04:03:35;;;;;;;40.92;37.03;;;17.10;99.90;;;;;;5013897;28;20116;-60
2023/07/05 04:06:04;;;;;;;39.90;36.38;;;15.20;99.90;;;;;;5014155;28;20084;-60
2023/07/05 04:08:30;;;;;;;39.33;35.45;;;16.40;99.90;;;;;;5013840;28;20076;-60
2023/07/05 04:10:55;;;;;;;39.63;36.03;;;15.50;99.90;;;;;;5018453;28;20037;-60
2023/07/05 04:13:21;;;;;;;38.75;35.25;;;15.60;99.90;;;;;;5033723;28;20067;-60
2023/07/05 04:15:46;;;;;;;38.05;34.67;;;15.10;99.90;;;;;;5033609;28;20558;-59
2023/07/05 04:18:12;;;;;;;39.45;32.33;;;17.50;99.90;;;;;;5033366;28;20049;-60
2023/07/05 04:20:38;;;;;;;35.15;31.70;;;15.00;99.90;;;;;;5033614;28;20571;-60
2023/07/05 04:23:04;;;;;;;35.33;31.92;;;16.80;99.90;;;;;;5033591;28;20037;-60
2023/07/05 04:25:30;;;;;;;33.90;31.00;;;16.40;99.90;;;;;;5033433;28;20037;-60
2023/07/05 04:27:55;;;;;;;35.55;31.95;;;15.20;99.90;;;;;;5033433;28;20574;-60
2023/07/05 04:30:21;;;;;;;36.55;33.05;;;15.30;99.90;;;;;;5033654;28;20420;-60
2023/07/05 04:32:46;;;;;;;36.88;33.35;;;15.30;99.90;;;;;;5033549;28;20041;-60
2023/07/05 04:35:12;;;;;;;36.65;32.60;;;16.90;99.90;;;;;;5033744;28;20045;-61
2023/07/05 04:37:37;;;;;;;37.35;33.70;;;17.50;99.90;;;;;;5033359;28;20049;-60
2023/07/05 04:40:03;;;;;;;36.22;32.92;;;17.30;99.90;;;;;;5033327;28;20052;-60
2023/07/05 04:42:29;;;;;;;34.85;31.52;;;15.70;99.90;;;;;;5033001;28;20523;-60
2023/07/05 04:44:55;;;;;;;32.42;29.08;;;15.50;99.90;;;;;;5033162;28;20042;-60
2023/07/05 04:47:20;;;;;;;32.90;29.83;;;15.00;99.90;;;;;;5032845;28;20379;-60
2023/07/05 04:49:46;;;;;;;33.53;30.55;;;15.20;99.90;;;;;;5032927;28;20049;-60
2023/07/05 04:52:12;;;;;;;33.00;29.88;;;14.70;99.90;;;;;;5033057;28;20210;-60
2023/07/05 04:54:38;;;;;;;32.70;29.80;;;16.70;99.90;;;;;;5048455;28;20072;-60
2023/07/05 04:57:04;;;;;;;32.47;29.63;;;16.40;99.90;;;;;;5032740;28;20093;-60
2023/07/05 04:59:30;;;;;;;33.45;30.55;;;14.60;99.90;;;;;;5032784;28;20033;-60
2023/07/05 05:01:56;;;;;;;35.00;31.77;;;15.10;99.90;;;;;;5033160;28;20486;-60
2023/07/05 05:04:21;;;;;;;35.67;32.60;;;15.00;99.90;;;;;;5032016;28;20138;-60
2023/07/05 05:06:47;;;;;;;35.20;32.25;;;15.60;99.90;;;;;;5032734;28;20038;-60
2023/07/05 05:09:13;;;;;;;36.05;32.95;;;14.60;99.90;;;;;;5032572;28;20041;-60
2023/07/05 05:11:38;;;;;;;36.58;33.33;;;14.90;99.90;;;;;;5021578;28;20067;-60
2023/07/05 05:14:04;;;;;;;36.78;33.45;;;14.60;99.90;;;;;;5012900;28;20044;-60
2023/07/05 05:16:30;;;;;;;36.20;33.00;;;17.30;99.90;;;;;;5012657;28;20551;-60
2023/07/05 05:18:55;;;;;;;36.33;33.00;;;15.10;99.90;;;;;;5012489;28;20069;-59
2023/07/05 05:21:21;;;;;;;36.78;33.53;;;14.70;99.90;;;;;;5011339;28;20821;-60
2023/07/05 05:23:46;;;;;;;35.67;32.53;;;17.30;99.90;;;;;;5012661;28;20076;-60
2023/07/05 05:26:12;;;;;;;35.78;32.63;;;16.10;99.90;;;;;;5012534;28;20049;-60
2023/07/05 05:28:38;;;;;;;35.85;32.55;;;16.60;99.90;;;;;;5012544;28;20129;-60
2023/07/05 05:31:07;;;;;;;36.95;33.70;;;17.40;99.90;;;;;;5012449;28;20088;-60
2023/07/05 05:33:33;;;;;;;35.58;32.45;;;17.40;99.90;;;;;;5012810;28;20399;-60
2023/07/05 05:35:59;;;;;;;37.40;33.80;;;16.80;99.90;;;;;;5012456;28;20116;-60
2023/07/05 05:38:24;;;;;;;37.03;33.72;;;15.50;99.90;;;;;;5012113;28;20053;-60
2023/07/05 05:40:51;;;;;;;37.00;33.70;;;15.20;99.90;;;;;;5012203;28;20038;-60
2023/07/05 05:43:19;;;;;;;35.88;32.53;;;14.70;99.90;;;;;;5012022;28;20054;-60
2023/07/05 05:45:45;;;;;;;37.10;33.78;;;14.50;99.90;;;;;;5012134;28;20571;-59
2023/07/05 05:48:10;;;;;;;36.88;33.38;;;17.30;99.90;;;;;;5012153;28;20121;-60
2023/07/05 05:50:36;;;;;;;36.05;33.05;;;14.80;99.90;;;;;;5012228;28;20042;-60
2023/07/05 05:53:02;;;;;;;36.95;33.65;;;16.40;99.90;;;;;;5012466;28;20049;-59
2023/07/05 05:55:28;;;;;;;35.80;32.33;;;16.90;99.90;;;;;;5011034;28;20388;-60
2023/07/05 05:57:54;;;;;;;34.58;31.42;;;17.30;99.90;;;;;;5027202;28;20124;-59
2023/07/05 06:00:20;;;;;;;35.10;31.70;;;17.30;99.90;;;;;;5011971;28;20461;-60
2023/07/05 06:02:45;;;;;;;33.03;29.90;;;16.10;99.90;;;;;;5011829;28;20061;-59
2023/07/05 06:05:11;;;;;;;35.08;32.05;;;16.50;99.90;;;;;;5011818;28;20056;-60
2023/07/05 06:07:38;;;;;;;33.80;30.83;;;17.70;99.90;;;;;;5011678;28;20048;-59
2023/07/05 06:10:04;;;;;;;29.02;26.55;;;17.50;99.90;;;;;;5017032;28;20033;-59
2023/07/05 06:12:29;;;;;;;25.30;23.08;;;17.20;99.90;;;;;;5013587;28;20602;-60
2023/07/05 06:14:55;;;;;;;26.90;24.58;;;17.70;99.90;;;;;;5011621;28;20483;-59
2023/07/05 06:17:21;;;;;;;28.10;25.65;;;16.00;99.90;;;;;;5011342;28;20076;-59
2023/07/05 06:19:46;;;;;;;30.52;27.85;;;16.00;99.90;;;;;;5026640;28;20675;-59
2023/07/05 06:22:12;;;;;;;33.50;30.48;;;17.40;99.90;;;;;;5026886;28;20044;-60
2023/07/05 06:24:37;;;;;;;30.95;28.15;;;17.00;99.90;;;;;;5031196;28;20037;-59
2023/07/05 06:27:03;;;;;;;32.35;29.23;;;16.80;99.90;;;;;;5031118;28;20795;-59
2023/07/05 06:29:29;;;;;;;34.70;31.63;;;17.10;99.90;;;;;;5030941;28;20046;-58
2023/07/05 06:31:54;;;;;;;34.55;31.45;;;16.90;99.90;;;;;;5031020;28;20037;-59
2023/07/05 06:34:21;;;;;;;33.83;30.98;;;15.00;99.90;;;;;;5031255;28;20045;-59
2023/07/05 06:36:47;;;;;;;32.40;29.50;;;15.30;99.90;;;;;;5030903;28;20041;-60
2023/07/05 06:39:14;;;;;;;30.10;27.60;;;14.70;99.90;;;;;;5030809;28;20040;-60
2023/07/05 06:41:39;;;;;;;30.33;27.83;;;14.70;99.90;;;;;;5029631;28;20033;-60
2023/07/05 06:44:06;;;;;;;29.88;27.15;;;16.60;99.90;;;;;;5030776;28;20053;-60
2023/07/05 06:46:31;;;;;;;31.63;28.73;;;15.50;99.90;;;;;;5030533;28;20387;-59
2023/07/05 06:48:57;;;;;;;30.65;28.05;;;16.50;99.90;;;;;;5013128;28;20432;-60
2023/07/05 06:51:24;;;;;;;30.10;27.60;;;14.80;99.90;;;;;;5025074;28;20041;-61
2023/07/05 06:53:50;;;;;;;32.13;29.42;;;14.30;99.90;;;;;;5027873;28;20087;-60
2023/07/05 06:56:16;;;;;;;32.65;29.52;;;14.50;99.90;;;;;;5029530;28;20360;-62
2023/07/05 06:58:42;;;;;;;31.30;28.63;;;16.20;99.90;;;;;;5023351;28;20037;-60
2023/07/05 07:01:08;;;;;;;31.15;27.02;;;14.80;99.90;;;;;;5029958;28;20418;-60
2023/07/05 07:03:33;;;;;;;29.70;26.95;;;13.40;99.90;;;;;;5028600;28;20033;-60
2023/07/05 07:05:59;;;;;;;31.92;29.02;;;15.60;99.90;;;;;;5030223;28;20139;-60
2023/07/05 07:08:30;;;;;;;32.55;29.45;;;15.30;99.90;;;;;;5030262;28;20091;-60
2023/07/05 07:10:59;;;;;;;29.83;27.38;;;16.00;99.90;;;;;;5022085;28;20042;-62
2023/07/05 07:13:25;;;;;;;29.73;27.23;;;16.40;99.90;;;;;;5030299;28;20095;-61
2023/07/05 07:15:59;;;;;;;27.52;25.13;;;15.60;99.90;;;;;;5030331;28;20041;-63
2023/07/05 07:18:25;;;;;;;29.85;27.05;;;15.30;99.90;;;;;;5046727;28;20087;-62
2023/07/05 07:20:54;;;;;;;30.83;28.23;;;13.80;99.90;;;;;;5038011;28;20039;-61
2023/07/05 07:23:21;;;;;;;33.15;30.20;;;13.10;99.90;;;;;;5010654;28;20415;-62
2023/07/05 07:25:46;;;;;;;37.00;33.42;;;15.00;99.90;;;;;;5009968;28;20033;-62
2023/07/05 07:28:12;;;;;;;37.70;34.58;;;14.30;99.90;;;;;;5043271;28;20418;-62
2023/07/05 07:30:37;;;;;;;35.47;32.47;;;14.90;99.90;;;;;;5049895;28;20048;-61
2023/07/05 07:33:03;;;;;;;33.53;30.50;;;14.80;99.90;;;;;;5032486;28;20099;-60
2023/07/05 07:35:28;;;;;;;33.50;30.77;;;12.60;99.90;;;;;;5030040;28;20045;-61
2023/07/05 07:37:54;;;;;;;33.10;30.52;;;12.50;99.90;;;;;;5022763;28;20045;-62
2023/07/05 07:40:19;;;;;;;34.65;32.03;;;14.40;99.90;;;;;;5019658;28;20124;-62
2023/07/05 07:42:45;;;;;;;45.53;41.92;;;12.00;99.90;;;;;;5029760;28;20057;-62
2023/07/05 07:45:11;;;;;;;35.20;32.28;;;13.70;99.90;;;;;;5029289;28;20160;-62
2023/07/05 07:47:36;;;;;;;34.28;31.42;;;12.70;99.90;;;;;;5030236;28;20037;-61
2023/07/05 07:50:02;;;;;;;40.45;37.15;;;14.30;99.90;;;;;;5030340;28;20037;-61
2023/07/05 07:52:27;;;;;;;35.53;32.83;;;14.10;99.90;;;;;;5030077;28;20038;-60
2023/07/05 07:54:56;;;;;;;34.08;31.27;;;14.20;99.90;;;;;;5029828;28;20044;-60
2023/07/05 07:57:22;;;;;;;40.40;37.00;;;14.30;99.90;;;;;;5017023;28;20361;-61
2023/07/05 07:59:47;;;;;;;35.70;32.72;;;14.90;99.90;;;;;;5017091;28;20049;-61
2023/07/05 08:02:13;;;;;;;34.80;31.98;;;13.50;99.90;;;;;;5019383;28;20037;-61
2023/07/05 08:04:43;;;;;;;34.97;32.08;;;15.00;99.90;;;;;;5028539;28;20094;-61
2023/07/05 08:07:09;;;;;;;33.97;30.98;;;15.00;99.90;;;;;;5028531;28;20037;-61
2023/07/05 08:09:35;;;;;;;38.13;34.92;;;14.20;99.90;;;;;;5041786;28;20045;-61
2023/07/05 08:12:00;;;;;;;41.35;38.15;;;12.60;99.90;;;;;;5023031;28;20095;-61
2023/07/05 08:14:26;;;;;;;34.65;31.65;;;15.10;99.90;;;;;;5029523;28;20049;-61
2023/07/05 08:16:52;;;;;;;31.50;28.45;;;12.60;99.90;;;;;;5029363;28;20044;-61
2023/07/05 08:19:20;;;;;;;30.65;24.33;;;14.90;99.90;;;;;;5023421;28;20052;-61
2023/07/05 08:21:46;;;;;;;37.58;34.08;;;15.80;99.90;;;;;;5029317;28;20087;-61
2023/07/05 08:24:13;;;;;;;26.00;23.42;;;12.90;99.90;;;;;;5029623;28;20037;-61
2023/07/05 08:26:38;;;;;;;24.75;22.30;;;15.20;99.90;;;;;;5027339;28;20045;-61
2023/07/05 08:29:04;;;;;;;25.05;22.70;;;13.00;99.90;;;;;;5029403;28;20041;-61
2023/07/05 08:31:30;;;;;;;26.13;23.48;;;16.00;99.90;;;;;;5029635;28;20053;-61
2023/07/05 08:33:55;;;;;;;24.88;22.35;;;16.60;99.90;;;;;;5029449;28;20091;-61
2023/07/05 08:36:36;;;;;;;24.83;22.38;;;14.80;99.90;;;;;;5020919;28;20141;-61
2023/07/05 08:39:05;;;;;;;27.17;24.27;;;15.50;99.90;;;;;;5031165;28;20076;-61
2023/07/05 08:41:34;;;;;;;25.70;23.10;;;14.50;99.90;;;;;;5027444;28;20041;-61
2023/07/05 08:44:32;;;;;;;26.55;24.10;;;15.20;99.90;;;;;;5024845;28;20212;-61
2023/07/05 08:47:03;;;;;;;26.70;24.60;;;17.00;99.90;;;;;;5033057;28;20499;-61
2023/07/05 08:49:38;;;;;;;24.50;22.38;;;16.70;99.90;;;;;;5032291;28;20099;-61
2023/07/05 08:52:05;;;;;;;29.80;27.40;;;14.00;99.90;;;;;;5033089;28;20049;-60
2023/07/05 08:54:32;;;;;;;31.80;29.10;;;16.10;99.90;;;;;;5033014;28;20041;-61
2023/07/05 08:57:12;;;;;;;30.45;27.92;;;13.60;99.90;;;;;;5032719;28;20121;-61
2023/07/05 08:59:57;;;;;;;29.63;26.98;;;15.80;99.90;;;;;;5031815;28;20034;-61
2023/07/05 09:02:23;;;;;;;31.58;28.80;;;16.20;99.90;;;;;;5034059;28;20411;-61
2023/07/05 09:04:50;;;;;;;29.85;27.00;;;13.80;99.90;;;;;;5032843;28;20167;-61
2023/07/05 09:07:23;;;;;;;33.22;30.17;;;15.40;99.90;;;;;;5031021;28;20045;-61
2023/07/05 09:10:24;;;;;;;31.45;28.23;;;14.10;99.90;;;;;;5032557;28;20072;-61
2023/07/05 09:13:09;;;;;;;31.08;27.92;;;14.30;99.90;;;;;;5036359;28;20050;-61
2023/07/05 09:15:40;;;;;;;34.15;29.52;;;14.10;99.90;;;;;;5032107;28;20076;-61
2023/07/05 09:18:21;;;;;;;32.38;29.45;;;16.30;99.90;;;;;;5032206;28;20088;-61
2023/07/05 09:21:11;;;;;;;32.38;29.33;;;17.50;99.90;;;;;;5032345;28;20112;-60
2023/07/05 09:23:53;;;;;;;31.05;28.25;;;16.10;99.90;;;;;;5032561;28;20049;-60
2023/07/05 09:26:24;;;;;;;34.13;30.70;;;13.90;99.90;;;;;;5032235;28;20047;-60
2023/07/05 09:29:13;;;;;;;35.22;32.10;;;13.50;99.90;;;;;;5032281;28;20074;-60
2023/07/05 09:31:41;;;;;;;33.60;30.80;;;14.50;99.90;;;;;;5030692;28;20521;-60
2023/07/05 09:34:48;;;;;;;33.78;30.83;;;17.30;99.90;;;;;;5032280;28;20045;-60
2023/07/05 09:37:15;;;;;;;31.88;29.08;;;17.10;99.90;;;;;;5028680;28;20164;-60
2023/07/05 09:39:49;;;;;;;34.92;32.00;;;13.30;99.90;;;;;;5023166;28;20087;-60
2023/07/05 09:42:38;;;;;;;34.63;31.55;;;14.10;99.90;;;;;;5031640;28;20043;-60
2023/07/05 09:45:04;;;;;;;36.63;33.33;;;15.60;99.90;;;;;;5031651;28;20048;-60
2023/07/05 09:47:30;;;;;;;36.42;33.22;;;14.90;99.90;;;;;;5031530;28;20033;-60
2023/07/05 09:49:55;;;;;;;36.53;33.22;;;17.00;99.90;;;;;;5031596;28;20099;-60
2023/07/05 09:52:25;;;;;;;38.22;34.92;;;14.20;99.90;;;;;;5029549;28;20551;-61
2023/07/05 09:54:58;;;;;;;32.90;30.27;;;17.50;99.90;;;;;;5015481;28;20033;-60
2023/07/05 09:57:25;;;;;;;36.13;32.95;;;17.00;99.90;;;;;;5023218;28;20056;-60
2023/07/05 09:59:52;;;;;;;34.45;31.48;;;17.40;99.90;;;;;;5031728;28;20041;-61
2023/07/05 10:02:31;;;;;;;38.15;34.85;;;16.30;99.90;;;;;;5031637;28;20033;-61
2023/07/05 10:05:14;;;;;;;37.95;34.67;;;16.30;99.90;;;;;;5031668;28;20160;-60
2023/07/05 10:07:52;;;;;;;38.75;35.15;;;16.50;99.90;;;;;;5031581;28;20489;-60
2023/07/05 10:10:18;;;;;;;36.83;33.63;;;16.50;99.90;;;;;;5024682;28;20045;-60
2023/07/05 10:12:44;;;;;;;37.03;33.92;;;15.40;99.90;;;;;;5045139;28;20057;-60
2023/07/05 10:15:24;;;;;;;36.03;32.92;;;16.90;99.90;;;;;;5011714;28;20046;-60
2023/07/05 10:17:53;;;;;;;37.88;34.33;;;17.20;99.90;;;;;;5028423;28;20041;-60
2023/07/05 10:20:37;;;;;;;34.05;30.75;;;17.60;99.90;;;;;;5031139;28;20042;-60
2023/07/05 10:23:16;;;;;;;34.75;31.35;;;17.50;99.90;;;;;;5028384;28;20428;-60
2023/07/05 10:25:41;;;;;;;35.80;32.20;;;17.70;99.90;;;;;;5024308;28;20060;-61
2023/07/05 10:28:12;;;;;;;35.38;31.98;;;17.80;99.90;;;;;;5030879;28;20041;-60
2023/07/05 10:31:03;;;;;;;33.47;30.10;;;18.00;99.90;;;;;;5011584;28;20052;-61
2023/07/05 10:33:36;;;;;;;30.38;27.48;;;18.40;99.90;;;;;;5024187;28;20073;-60
2023/07/05 10:36:12;;;;;;;28.70;24.40;;;18.50;99.90;;;;;;5010421;28;20428;-60
2023/07/05 10:38:46;;;;;;;28.25;24.30;;;18.30;99.90;;;;;;5030647;28;20041;-60
2023/07/05 10:41:29;;;;;;;24.33;21.85;;;19.10;99.90;;;;;;5029453;28;20091;-61
2023/07/05 10:44:04;;;;;;;25.33;22.02;;;18.50;99.90;;;;;;5030647;28;20057;-60
2023/07/05 10:46:31;;;;;;;27.95;25.00;;;18.50;99.90;;;;;;5030719;28;20084;-60
2023/07/05 10:48:58;;;;;;;29.52;22.70;;;18.60;99.90;;;;;;5030604;28;20183;-60
2023/07/05 10:51:27;;;;;;;34.50;25.40;;;18.80;99.90;;;;;;5030549;28;20081;-60
2023/07/05 10:54:02;;;;;;;32.05;25.50;;;19.10;99.90;;;;;;5030799;28;20045;-60
2023/07/05 10:56:32;;;;;;;31.88;24.75;;;19.60;99.90;;;;;;5034109;28;20072;-60
2023/07/05 10:59:13;;;;;;;30.50;23.25;;;20.00;1.00;;;;;;5030774;28;20096;-60
2023/07/05 11:01:51;;;;;;;32.10;21.60;;;20.20;99.90;;;;;;5045444;28;20043;-60
2023/07/05 11:04:22;;;;;;;31.60;22.20;;;20.50;85.20;;;;;;5057750;28;20475;-60
2023/07/05 11:06:50;;;;;;;25.92;20.40;;;20.70;99.90;;;;;;5020165;28;20073;-60
2023/07/05 11:09:17;;;;;;;33.75;30.05;;;20.50;1.00;;;;;;5028024;28;20037;-60
2023/07/05 11:11:53;;;;;;;51.40;38.95;;;19.50;1.00;;;;;;5020719;28;20468;-60
2023/07/05 11:14:21;;;;;;;53.92;39.40;;;18.50;1.00;;;;;;5030892;28;20056;-60
2023/07/05 11:16:47;;;;;;;58.05;41.55;;;17.80;99.90;;;;;;5030364;28;20450;-60
2023/07/05 11:19:19;;;;;;;54.00;40.88;;;17.40;99.90;;;;;;5030356;28;20454;-59
2023/07/05 11:21:48;;;;;;;58.70;42.28;;;17.20;81.70;;;;;;5030046;28;20072;-59
2023/07/05 11:24:39;;;;;;;61.72;43.05;;;17.00;56.40;;;;;;5034437;28;20254;-60
2023/07/05 11:27:23;;;;;;;58.45;40.65;;;17.10;99.90;;;;;;5042859;28;20049;-60
2023/07/05 11:29:51;;;;;;;42.63;37.92;;;16.80;99.90;;;;;;5030209;28;20120;-59
2023/07/05 11:32:18;;;;;;;43.70;38.60;;;16.70;99.90;;;;;;5021640;28;20056;-59
2023/07/05 11:34:49;;;;;;;49.60;39.72;;;16.60;99.90;;;;;;5028270;28;20037;-60
2023/07/05 11:37:15;;;;;;;52.22;43.08;;;16.50;99.90;;;;;;5029739;28;20126;-59
2023/07/05 11:39:51;;;;;;;49.92;43.45;;;16.70;99.90;;;;;;5030024;28;20137;-59
2023/07/05 11:42:20;;;;;;;42.97;38.47;;;16.60;99.90;;;;;;5029790;28;20041;-60
2023/07/05 11:44:49;;;;;;;53.03;38.75;;;16.60;99.90;;;;;;5021550;28;20111;-60
2023/07/05 11:47:23;;;;;;;50.22;42.45;;;16.80;99.90;;;;;;5034043;28;20056;-59
2023/07/05 11:50:09;;;;;;;48.55;41.17;;;16.50;99.90;;;;;;5029775;28;20068;-60
2023/07/05 11:52:41;;;;;;;;;;;16.80;99.90;;;;;;5020208;28;20414;-59
2023/07/05 11:55:14;;;;;;;46.28;41.22;;;16.00;99.90;;;;;;5028622;28;19928;-59
2023/07/05 11:57:52;;;;;;;42.35;37.35;;;15.80;99.90;;;;;;5028155;28;20052;-59
2023/07/05 12:00:40;;;;;;;44.75;39.95;;;17.10;99.90;;;;;;5010367;28;20037;-59
2023/07/05 12:03:24;;;;;;;46.60;39.97;;;16.90;99.90;;;;;;5024710;28;20091;-59
2023/07/05 12:06:06;;;;;;;53.75;38.80;;;16.90;99.90;;;;;;5029874;28;20065;-59
2023/07/05 12:08:38;;;;;;;52.75;37.92;;;16.80;99.90;;;;;;5029757;28;20495;-60
2023/07/05 12:11:03;;;;;;;41.70;37.72;;;15.40;99.90;;;;;;5021898;28;20044;-59
2023/07/05 12:13:34;;;;;;;55.85;42.20;;;16.20;99.90;;;;;;5032613;28;20045;-59
2023/07/05 12:16:03;;;;;;;50.22;37.15;;;16.80;99.90;;;;;;5033126;28;20038;-60
2023/07/05 12:18:30;;;;;;;44.95;36.20;;;16.20;99.90;;;;;;5032672;28;20447;-59
2023/07/05 12:20:58;;;;;;;49.35;39.22;;;16.60;99.90;;;;;;5033351;28;20116;-60
2023/07/05 12:23:29;;;;;;;46.42;36.05;;;16.30;99.90;;;;;;5024759;28;20033;-60
2023/07/05 12:25:57;;;;;;;51.15;37.55;;;16.40;99.90;;;;;;5032483;28;20083;-59
2023/07/05 12:28:27;;;;;;;54.85;35.83;;;16.40;99.90;;;;;;5033031;28;20045;-60
2023/07/05 12:31:02;;;;;;;41.00;36.10;;;15.30;99.90;;;;;;5033572;28;20045;-60
2023/07/05 12:33:30;;;;;;;49.97;39.97;;;16.30;99.90;;;;;;5033222;28;20403;-61
2023/07/05 12:36:06;;;;;;;47.85;36.92;;;15.40;99.90;;;;;;5044590;28;20048;-61
2023/07/05 12:38:32;;;;;;;58.55;37.15;;;16.40;99.90;;;;;;5033117;28;20044;-60
2023/07/05 12:40:58;;;;;;;56.78;36.17;;;14.90;99.90;;;;;;5059477;28;20108;-61